createdAt,value
2023-12-30T00:00:29.065Z,95476.91
2023-12-30T00:02:56.866Z,95474.94
2023-12-30T00:05:26.694Z,95463.81
2023-12-30T00:07:56.781Z,95464.69
2023-12-30T00:10:25.784Z,95451.75
2023-12-30T00:12:53.550Z,95478.69
2023-12-30T00:15:22.476Z,95438.66
2023-12-30T00:17:51.345Z,95448.31
2023-12-30T00:20:19.718Z,95461.38
2023-12-30T00:22:47.665Z,95461.72
2023-12-30T00:25:15.502Z,95453.47
2023-12-30T00:27:43.135Z,95481.72
2023-12-30T00:30:14.645Z,95475.97
2023-12-30T00:32:42.542Z,95452.78
2023-12-30T00:35:10.471Z,95459.84
2023-12-30T00:37:38.771Z,95457.09
2023-12-30T00:40:07.032Z,95467.09
2023-12-30T00:42:34.750Z,95473.31
2023-12-30T00:45:02.437Z,95469.88
2023-12-30T00:47:32.074Z,95458.00
2023-12-30T00:49:59.906Z,95472.81
2023-12-30T00:52:27.639Z,95471.03
2023-12-30T00:54:55.580Z,95458.97
2023-12-30T00:57:23.719Z,95471.31
2023-12-30T00:59:51.740Z,95480.75
2023-12-30T01:02:19.543Z,95463.34
2023-12-30T01:04:47.404Z,95482.03
2023-12-30T01:07:16.134Z,95489.63
2023-12-30T01:09:43.819Z,95480.84
2023-12-30T01:12:11.708Z,95473.78
2023-12-30T01:14:39.737Z,95476.38
2023-12-30T01:17:07.443Z,95484.91
2023-12-30T01:19:35.186Z,95491.56
2023-12-30T01:22:03.200Z,95491.56
2023-12-30T01:24:31.598Z,95480.78
2023-12-30T01:26:59.431Z,95505.56
2023-12-30T01:29:30.618Z,95487.06
2023-12-30T01:31:59.233Z,95468.63
2023-12-30T01:34:27.769Z,95467.63
2023-12-30T01:36:56.944Z,95484.75
2023-12-30T01:39:24.555Z,95494.69
2023-12-30T01:41:53.389Z,95495.72
2023-12-30T01:44:22.348Z,95502.47
2023-12-30T01:46:50.218Z,95502.34
2023-12-30T01:49:18.425Z,95467.59
2023-12-30T01:51:48.947Z,95504.78
2023-12-30T01:54:19.251Z,95490.94
2023-12-30T01:56:47.189Z,95489.09
2023-12-30T01:59:18.180Z,95507.03
2023-12-30T02:01:47.151Z,95513.09
2023-12-30T02:04:14.988Z,95496.81
2023-12-30T02:06:42.916Z,95506.81
2023-12-30T02:09:10.935Z,95500.34
2023-12-30T02:11:39.452Z,95494.63
2023-12-30T02:14:26.887Z,95511.59
2023-12-30T02:16:56.160Z,95508.09
2023-12-30T02:19:43.905Z,95501.13
2023-12-30T02:22:11.515Z,95492.19
2023-12-30T02:24:39.198Z,95518.84
2023-12-30T02:27:06.970Z,95529.41
2023-12-30T02:29:34.602Z,95493.13
2023-12-30T02:32:02.427Z,95522.16
2023-12-30T02:34:30.805Z,95528.06
2023-12-30T02:36:58.723Z,95517.22
2023-12-30T02:39:27.099Z,95508.47
2023-12-30T02:41:54.985Z,95496.25
2023-12-30T02:44:22.783Z,95529.56
2023-12-30T02:46:50.622Z,95529.09
2023-12-30T02:49:18.667Z,95522.59
2023-12-30T02:51:46.517Z,95526.19
2023-12-30T02:54:14.170Z,95514.00
2023-12-30T02:56:42.802Z,95518.09
2023-12-30T02:59:10.553Z,95521.66
2023-12-30T03:01:39.898Z,95539.44
2023-12-30T03:04:08.143Z,95513.47
2023-12-30T03:06:36.098Z,95535.59
2023-12-30T03:09:04.053Z,95522.59
2023-12-30T03:11:32.652Z,95525.09
2023-12-30T03:14:00.628Z,95511.81
2023-12-30T03:16:28.598Z,95543.00
2023-12-30T03:18:57.096Z,95534.03
2023-12-30T03:21:24.959Z,95538.94
2023-12-30T03:23:53.151Z,95542.19
2023-12-30T03:26:21.856Z,95542.34
2023-12-30T03:28:51.691Z,95534.31
2023-12-30T03:31:30.616Z,95539.72
2023-12-30T03:33:58.802Z,95538.75
2023-12-30T03:36:31.444Z,95549.88
2023-12-30T03:38:59.615Z,95534.78
2023-12-30T03:41:27.452Z,95558.25
2023-12-30T03:43:55.823Z,95547.97
2023-12-30T03:46:23.632Z,95555.19
2023-12-30T03:48:51.445Z,95544.09
2023-12-30T03:51:19.220Z,95538.94
2023-12-30T03:53:47.216Z,95559.09
2023-12-30T03:56:18.200Z,95575.25
2023-12-30T03:58:46.290Z,95556.63
2023-12-30T04:01:17.485Z,95578.56
2023-12-30T04:03:45.449Z,95568.06
2023-12-30T04:06:22.984Z,95566.34
2023-12-30T04:08:50.783Z,95566.81
2023-12-30T04:11:19.225Z,95569.72
2023-12-30T04:13:47.651Z,95588.91
2023-12-30T04:16:19.099Z,95580.25
2023-12-30T04:18:46.875Z,95591.84
2023-12-30T04:21:17.617Z,95593.28
2023-12-30T04:23:46.366Z,95591.84
2023-12-30T04:26:17.062Z,95592.00
2023-12-30T04:28:48.129Z,95566.22
2023-12-30T04:31:18.125Z,95576.97
2023-12-30T04:33:46.762Z,95576.66
2023-12-30T04:36:16.661Z,95590.44
2023-12-30T04:38:46.366Z,95612.97
2023-12-30T04:41:14.936Z,95610.94
2023-12-30T04:43:43.048Z,95608.00
2023-12-30T04:46:24.961Z,95609.25
2023-12-30T04:48:56.072Z,95615.88
2023-12-30T04:51:23.883Z,95591.34
2023-12-30T04:54:32.621Z,95624.13
2023-12-30T04:57:46.048Z,95634.44
2023-12-30T05:00:23.641Z,95622.41
2023-12-30T05:02:55.229Z,95605.91
2023-12-30T05:05:47.704Z,95591.63
2023-12-30T05:08:18.346Z,95621.53
2023-12-30T05:10:51.050Z,95580.03
2023-12-30T05:13:22.900Z,95617.31
2023-12-30T05:15:57.835Z,95602.81
2023-12-30T05:18:26.110Z,95632.41
2023-12-30T05:21:05.701Z,95629.78
2023-12-30T05:23:41.543Z,95626.38
2023-12-30T05:26:18.751Z,95639.25
2023-12-30T05:29:51.984Z,95656.13
2023-12-30T05:32:24.196Z,95604.19
2023-12-30T05:34:54.818Z,95669.66
2023-12-30T05:37:35.054Z,95598.91
2023-12-30T05:40:11.431Z,95655.34
2023-12-30T05:42:45.285Z,95619.84
2023-12-30T05:45:18.408Z,95656.31
2023-12-30T05:47:51.348Z,95683.50
2023-12-30T05:50:21.211Z,95667.34
2023-12-30T05:53:00.276Z,95661.66
2023-12-30T05:55:36.132Z,95695.16
2023-12-30T05:58:06.908Z,95683.09
2023-12-30T06:00:42.104Z,95678.41
2023-12-30T06:03:18.499Z,95680.06
2023-12-30T06:05:49.026Z,95686.78
2023-12-30T06:08:24.776Z,95664.66
2023-12-30T06:10:58.051Z,95644.63
2023-12-30T06:13:37.374Z,95683.44
2023-12-30T06:16:32.990Z,95655.69
2023-12-30T06:22:26.665Z,95650.00
2023-12-30T06:24:56.832Z,95695.84
2023-12-30T06:30:35.541Z,95691.19
2023-12-30T06:33:10.353Z,95693.63
2023-12-30T06:35:43.069Z,95678.88
2023-12-30T06:38:20.115Z,95685.47
2023-12-30T06:40:57.726Z,95655.75
2023-12-30T06:45:26.653Z,95655.22
2023-12-30T06:46:36.753Z,95665.13
2023-12-30T06:49:06.109Z,95694.41
2023-12-30T06:51:35.317Z,95699.25
2023-12-30T06:54:06.887Z,95697.16
2023-12-30T06:56:35.290Z,95689.44
2023-12-30T06:59:04.675Z,95694.94
2023-12-30T07:01:34.054Z,95699.91
2023-12-30T07:04:01.863Z,95683.50
2023-12-30T07:06:29.712Z,95681.75
2023-12-30T07:08:57.628Z,95688.22
2023-12-30T07:11:25.819Z,95694.19
2023-12-30T07:13:55.894Z,95685.25
2023-12-30T07:16:23.894Z,95700.56
2023-12-30T07:18:53.271Z,95707.72
2023-12-30T07:21:22.902Z,95713.13
2023-12-30T07:23:50.969Z,95713.56
2023-12-30T07:26:18.963Z,95709.91
2023-12-30T07:28:49.412Z,95728.41
2023-12-30T07:31:17.431Z,95708.38
2023-12-30T07:33:45.345Z,95711.91
2023-12-30T07:36:14.155Z,95713.53
2023-12-30T07:38:42.321Z,95717.38
2023-12-30T07:41:10.978Z,95719.94
2023-12-30T07:43:39.799Z,95721.78
2023-12-30T07:46:07.706Z,95729.94
2023-12-30T07:48:36.256Z,95716.28
2023-12-30T07:51:05.916Z,95697.34
2023-12-30T07:53:38.171Z,95700.97
2023-12-30T07:56:06.442Z,95709.25
2023-12-30T07:58:34.317Z,95707.50
2023-12-30T08:01:02.242Z,95705.06
2023-12-30T08:03:30.048Z,95694.72
2023-12-30T08:05:57.809Z,95708.16
2023-12-30T08:08:25.731Z,95715.97
2023-12-30T08:10:53.434Z,95726.97
2023-12-30T08:13:22.247Z,95719.06
2023-12-30T08:15:50.584Z,95705.19
2023-12-30T08:18:18.693Z,95719.84
2023-12-30T08:20:46.650Z,95709.47
2023-12-30T08:23:14.444Z,95722.34
2023-12-30T08:25:42.480Z,95725.88
2023-12-30T08:28:10.330Z,95740.75
2023-12-30T08:30:39.323Z,95732.59
2023-12-30T08:33:11.417Z,95738.66
2023-12-30T08:35:39.725Z,95720.94
2023-12-30T08:38:07.493Z,95738.56
2023-12-30T08:40:37.277Z,95746.50
2023-12-30T08:43:06.659Z,95729.75
2023-12-30T08:45:34.866Z,95738.78
2023-12-30T08:48:02.779Z,95748.22
2023-12-30T08:50:30.942Z,95741.41
2023-12-30T08:52:59.593Z,95759.03
2023-12-30T08:55:30.431Z,95737.34
2023-12-30T08:57:58.228Z,95759.25
2023-12-30T09:00:27.743Z,95741.19
2023-12-30T09:02:57.731Z,95759.03
2023-12-30T09:05:25.740Z,95756.50
2023-12-30T09:07:53.544Z,95743.63
2023-12-30T09:10:21.618Z,95756.41
2023-12-30T09:12:49.772Z,95754.50
2023-12-30T09:15:20.775Z,95765.88
2023-12-30T09:17:50.517Z,95764.66
2023-12-30T09:20:18.831Z,95748.59
2023-12-30T09:22:47.017Z,95758.16
2023-12-30T09:25:14.840Z,95756.28
2023-12-30T09:27:42.905Z,95742.97
2023-12-30T09:30:12.469Z,95779.94
2023-12-30T09:32:40.675Z,95768.75
2023-12-30T09:35:09.322Z,95750.00
2023-12-30T09:37:37.191Z,95763.09
2023-12-30T09:40:05.502Z,95755.31
2023-12-30T09:42:34.637Z,95771.59
2023-12-30T09:45:05.636Z,95759.38
2023-12-30T09:47:47.626Z,95746.16
2023-12-30T09:50:16.171Z,95762.97
2023-12-30T09:52:44.440Z,95765.41
2023-12-30T09:55:12.264Z,95774.53
2023-12-30T09:57:40.614Z,95791.94
2023-12-30T10:00:10.646Z,95771.44
2023-12-30T10:02:39.763Z,95775.31
2023-12-30T10:05:08.499Z,95792.72
2023-12-30T10:07:40.174Z,95779.16
2023-12-30T10:10:09.725Z,95788.75
2023-12-30T10:12:37.467Z,95808.00
2023-12-30T10:15:05.797Z,95806.25
2023-12-30T10:17:33.590Z,95805.03
2023-12-30T10:20:01.666Z,95806.16
2023-12-30T10:22:31.243Z,95812.31
2023-12-30T10:24:59.377Z,95821.13
2023-12-30T10:27:29.125Z,95803.72
2023-12-30T10:30:00.533Z,95816.47
2023-12-30T10:32:31.761Z,95793.78
2023-12-30T10:34:59.619Z,95816.91
2023-12-30T10:37:29.973Z,95803.47
2023-12-30T10:40:00.688Z,95819.38
2023-12-30T10:42:30.029Z,95816.22
2023-12-30T10:44:59.346Z,95811.28
2023-12-30T10:47:29.961Z,95825.47
2023-12-30T10:50:08.103Z,95839.81
2023-12-30T10:52:40.767Z,95838.03
2023-12-30T10:55:15.553Z,95843.53
2023-12-30T10:57:52.846Z,95862.78
2023-12-30T11:00:22.211Z,95851.19
2023-12-30T11:02:54.036Z,95858.44
2023-12-30T11:05:37.066Z,95849.44
2023-12-30T11:08:06.421Z,95857.44
2023-12-30T11:10:35.229Z,95849.31
2023-12-30T11:13:03.719Z,95867.81
2023-12-30T11:15:36.466Z,95869.56
2023-12-30T11:18:13.213Z,95870.97
2023-12-30T11:20:48.486Z,95881.44
2023-12-30T11:23:19.165Z,95873.47
2023-12-30T11:25:48.487Z,95885.66
2023-12-30T11:28:26.883Z,95882.63
2023-12-30T11:31:01.048Z,95833.63
2023-12-30T11:33:29.985Z,95890.28
2023-12-30T11:36:05.208Z,95892.75
2023-12-30T11:38:40.164Z,95829.59
2023-12-30T11:41:10.753Z,95870.84
2023-12-30T11:43:41.238Z,95873.88
2023-12-30T11:46:10.092Z,95882.75
2023-12-30T11:48:50.914Z,95878.06
2023-12-30T11:51:30.516Z,95888.81
2023-12-30T11:54:03.692Z,95897.63
2023-12-30T11:56:32.205Z,95892.22
2023-12-30T11:59:02.110Z,95898.66
2023-12-30T12:01:32.283Z,95891.84
2023-12-30T12:04:00.189Z,95897.31
2023-12-30T12:06:28.676Z,95888.56
2023-12-30T12:08:59.401Z,95889.38
2023-12-30T12:11:27.907Z,95895.97
2023-12-30T12:14:00.077Z,95920.91
2023-12-30T12:16:34.076Z,95860.81
2023-12-30T12:19:06.720Z,95907.56
2023-12-30T12:21:37.915Z,95890.78
2023-12-30T12:24:07.282Z,95885.72
2023-12-30T12:26:35.007Z,95904.59
2023-12-30T12:29:06.203Z,95901.59
2023-12-30T12:31:34.525Z,95915.75
2023-12-30T12:34:24.296Z,95905.28
2023-12-30T12:36:54.599Z,95886.41
2023-12-30T12:39:24.029Z,95926.38
2023-12-30T12:42:02.233Z,95916.16
2023-12-30T12:44:33.523Z,95919.81
2023-12-30T12:47:02.064Z,95918.22
2023-12-30T12:49:33.797Z,95923.50
2023-12-30T12:52:02.299Z,95911.50
2023-12-30T12:54:34.698Z,95916.06
2023-12-30T12:57:05.775Z,95931.25
2023-12-30T12:59:33.554Z,95929.09
2023-12-30T13:02:01.908Z,95932.94
2023-12-30T13:04:30.302Z,95932.16
2023-12-30T13:07:02.688Z,95920.00
2023-12-30T13:10:00.595Z,95917.75
2023-12-30T13:12:31.967Z,95953.09
2023-12-30T13:15:11.505Z,95919.53
2023-12-30T13:17:45.974Z,95948.44
2023-12-30T13:20:18.479Z,95916.81
2023-12-30T13:23:31.707Z,95944.59
2023-12-30T13:26:26.350Z,95938.25
2023-12-30T13:28:55.372Z,95916.13
2023-12-30T13:31:26.025Z,95942.78
2023-12-30T13:34:03.485Z,95898.66
2023-12-30T13:36:45.207Z,95890.59
2023-12-30T13:39:18.369Z,95929.44
2023-12-30T13:41:46.224Z,95962.59
2023-12-30T13:44:15.361Z,95940.44
2023-12-30T13:46:59.869Z,95960.72
2023-12-30T13:50:00.616Z,95962.53
2023-12-30T13:52:30.060Z,95962.63
2023-12-30T13:54:58.437Z,95950.38
2023-12-30T13:57:31.017Z,95964.19
2023-12-30T13:59:59.715Z,95961.41
2023-12-30T14:02:29.646Z,95962.63
2023-12-30T14:05:00.347Z,95960.22
2023-12-30T14:07:29.973Z,95953.84
2023-12-30T14:10:02.218Z,95965.41
2023-12-30T14:12:32.027Z,95960.50
2023-12-30T14:15:07.504Z,95979.09
2023-12-30T14:17:36.613Z,95956.81
2023-12-30T14:20:07.977Z,95993.81
2023-12-30T14:22:53.863Z,95961.25
2023-12-30T14:25:21.993Z,95973.34
2023-12-30T14:27:54.153Z,95974.28
2023-12-30T14:30:22.005Z,95994.16
2023-12-30T14:33:02.963Z,95991.66
2023-12-30T14:35:31.342Z,95969.72
2023-12-30T14:37:59.417Z,96004.25
2023-12-30T14:40:27.783Z,95995.09
2023-12-30T14:42:56.761Z,95981.63
2023-12-30T14:45:24.776Z,95980.84
2023-12-30T14:47:52.683Z,95970.00
2023-12-30T14:50:20.721Z,95995.88
2023-12-30T14:52:48.693Z,95986.44
2023-12-30T14:55:18.621Z,95992.28
2023-12-30T14:57:51.282Z,95986.44
2023-12-30T15:00:24.862Z,96000.06
2023-12-30T15:02:54.249Z,95990.03
2023-12-30T15:05:23.857Z,95992.66
2023-12-30T15:07:55.742Z,95995.25
2023-12-30T15:10:25.678Z,95990.78
2023-12-30T15:12:54.917Z,95954.38
2023-12-30T15:15:22.859Z,95980.25
2023-12-30T15:17:52.023Z,95988.94
2023-12-30T15:20:21.113Z,95936.78
2023-12-30T15:22:49.703Z,95990.63
2023-12-30T15:25:20.055Z,95977.47
2023-12-30T15:27:54.041Z,95985.56
2023-12-30T15:30:26.099Z,95990.97
2023-12-30T15:32:56.652Z,95998.75
2023-12-30T15:35:24.635Z,96001.41
2023-12-30T15:37:53.539Z,96001.56
2023-12-30T15:40:21.540Z,96012.88
2023-12-30T15:42:50.113Z,95986.25
2023-12-30T15:45:18.013Z,96005.16
2023-12-30T15:47:48.658Z,95987.66
2023-12-30T15:50:16.535Z,96003.75
2023-12-30T15:52:44.648Z,96021.72
2023-12-30T15:55:14.086Z,96020.81
2023-12-30T15:57:42.235Z,96030.56
2023-12-30T16:00:11.666Z,96040.69
2023-12-30T16:02:39.760Z,96026.88
2023-12-30T16:05:08.057Z,96056.00
2023-12-30T16:07:39.241Z,96042.69
2023-12-30T16:10:07.867Z,96034.00
2023-12-30T16:12:37.291Z,96052.28
2023-12-30T16:15:09.713Z,96027.97
2023-12-30T16:18:08.695Z,96030.75
2023-12-30T16:20:39.543Z,96049.66
2023-12-30T16:23:13.183Z,96022.06
2023-12-30T16:25:41.703Z,96068.56
2023-12-30T16:28:10.448Z,96052.00
2023-12-30T16:30:41.191Z,96068.75
2023-12-30T16:33:09.621Z,96062.69
2023-12-30T16:35:38.013Z,96058.31
2023-12-30T16:38:07.303Z,96067.03
2023-12-30T16:40:35.520Z,96100.38
2023-12-30T16:43:03.901Z,96062.38
2023-12-30T16:45:32.109Z,96109.66
2023-12-30T16:48:02.349Z,96070.13
2023-12-30T16:50:30.339Z,96090.44
2023-12-30T16:52:58.268Z,96106.72
2023-12-30T16:55:26.231Z,96103.78
2023-12-30T16:57:55.323Z,96092.31
2023-12-30T17:00:25.828Z,96117.41
2023-12-30T17:02:54.279Z,96114.00
2023-12-30T17:05:22.428Z,96119.41
2023-12-30T17:07:51.193Z,96118.97
2023-12-30T17:10:36.544Z,96135.38
2023-12-30T17:13:07.283Z,96126.72
2023-12-30T17:15:36.174Z,96123.28
2023-12-30T17:18:05.249Z,96142.22
2023-12-30T17:20:35.311Z,96116.47
2023-12-30T17:23:03.699Z,96139.72
2023-12-30T17:25:31.582Z,96125.94
2023-12-30T17:27:59.575Z,96134.00
2023-12-30T17:30:31.358Z,96125.16
2023-12-30T17:33:04.739Z,96134.44
2023-12-30T17:35:32.889Z,96138.03
2023-12-30T17:38:01.408Z,96128.72
2023-12-30T17:40:29.698Z,96127.78
2023-12-30T17:42:57.895Z,96135.41
2023-12-30T17:45:26.217Z,96136.63
2023-12-30T17:47:54.667Z,96147.50
2023-12-30T17:50:23.374Z,96156.63
2023-12-30T17:52:51.376Z,96161.44
2023-12-30T17:55:19.618Z,96146.88
2023-12-30T17:57:47.427Z,96152.09
2023-12-30T18:00:16.517Z,96152.44
2023-12-30T18:02:44.335Z,96155.69
2023-12-30T18:05:13.468Z,96159.69
2023-12-30T18:07:41.893Z,96177.69
2023-12-30T18:10:09.836Z,96179.25
2023-12-30T18:12:38.416Z,96175.06
2023-12-30T18:15:07.075Z,96177.69
2023-12-30T18:17:36.152Z,96163.72
2023-12-30T18:20:04.084Z,96172.09
2023-12-30T18:22:32.352Z,96177.84
2023-12-30T18:25:00.579Z,96178.31
2023-12-30T18:27:28.500Z,96190.72
2023-12-30T18:29:56.260Z,96187.75
2023-12-30T18:32:24.019Z,96197.38
2023-12-30T18:34:51.901Z,96196.59
2023-12-30T18:37:19.974Z,96183.56
2023-12-30T18:39:47.770Z,96203.72
2023-12-30T18:42:15.954Z,96206.06
2023-12-30T18:44:44.037Z,96199.06
2023-12-30T18:47:13.026Z,96213.03
2023-12-30T18:49:42.013Z,96193.44
2023-12-30T18:52:09.846Z,96219.81
2023-12-30T18:54:37.770Z,96205.97
2023-12-30T18:57:05.949Z,96238.50
2023-12-30T18:59:33.621Z,96239.91
2023-12-30T19:02:03.333Z,96249.97
2023-12-30T19:04:58.782Z,96235.97
2023-12-30T19:07:32.993Z,96245.00
2023-12-30T19:10:00.864Z,96246.22
2023-12-30T19:12:30.703Z,96231.03
2023-12-30T19:14:58.541Z,96257.88
2023-12-30T19:17:28.478Z,96250.72
2023-12-30T19:19:57.168Z,96255.66
2023-12-30T19:22:25.017Z,96259.84
2023-12-30T19:24:53.210Z,96254.69
2023-12-30T19:27:21.990Z,96259.66
2023-12-30T19:29:52.585Z,96263.03
2023-12-30T19:32:20.464Z,96253.72
2023-12-30T19:34:48.319Z,96230.34
2023-12-30T19:37:16.977Z,96255.41
2023-12-30T19:39:45.341Z,96272.81
2023-12-30T19:42:13.178Z,96251.53
2023-12-30T19:44:40.966Z,96274.50
2023-12-30T19:47:09.150Z,96280.56
2023-12-30T19:49:37.258Z,96292.91
2023-12-30T19:52:05.294Z,96282.78
2023-12-30T19:54:39.235Z,96291.81
2023-12-30T19:57:07.811Z,96266.78
2023-12-30T19:59:39.237Z,96240.47
2023-12-30T20:02:08.471Z,96307.13
2023-12-30T20:04:42.344Z,96307.75
2023-12-30T20:07:13.809Z,96286.88
2023-12-30T20:09:43.786Z,96326.16
2023-12-30T20:12:11.588Z,96295.00
2023-12-30T20:14:40.776Z,96310.19
2023-12-30T20:17:08.533Z,96314.28
2023-12-30T20:19:36.395Z,96311.16
2023-12-30T20:22:04.342Z,96308.66
2023-12-30T20:24:32.089Z,96322.28
2023-12-30T20:26:59.985Z,96310.94
2023-12-30T20:29:27.939Z,96309.41
2023-12-30T20:31:57.374Z,96321.84
2023-12-30T20:34:25.864Z,96329.88
2023-12-30T20:36:53.733Z,96337.47
2023-12-30T20:39:22.133Z,96307.19
2023-12-30T20:41:50.615Z,96333.59
2023-12-30T20:44:19.440Z,96320.25
2023-12-30T20:46:48.561Z,96319.41
2023-12-30T20:49:16.650Z,96319.91
2023-12-30T20:51:51.900Z,96294.81
2023-12-30T20:54:19.850Z,96347.88
2023-12-30T20:56:48.966Z,96344.03
2023-12-30T20:59:23.137Z,96353.91
2023-12-30T21:01:51.108Z,96363.66
2023-12-30T21:04:18.988Z,96361.34
2023-12-30T21:06:47.135Z,96360.38
2023-12-30T21:09:16.170Z,96341.69
2023-12-30T21:11:44.236Z,96366.09
2023-12-30T21:14:13.303Z,96364.56
2023-12-30T21:16:45.135Z,96368.16
2023-12-30T21:19:14.341Z,96364.06
2023-12-30T21:21:43.683Z,96372.03
2023-12-30T21:24:11.466Z,96367.19
2023-12-30T21:26:39.825Z,96371.06
2023-12-30T21:29:07.952Z,96367.66
2023-12-30T21:31:35.824Z,96363.31
2023-12-30T21:34:03.829Z,96375.25
2023-12-30T21:36:31.645Z,96371.19
2023-12-30T21:38:59.762Z,96375.38
2023-12-30T21:41:27.660Z,96383.06
2023-12-30T21:43:55.870Z,96373.03
2023-12-30T21:46:26.649Z,96380.38
2023-12-30T21:48:59.231Z,96397.78
2023-12-30T21:51:27.194Z,96395.91
2023-12-30T21:53:55.984Z,96394.66
2023-12-30T21:56:25.088Z,96399.44
2023-12-30T21:58:53.806Z,96418.34
2023-12-30T22:01:22.062Z,96416.19
2023-12-30T22:03:50.066Z,96398.34
2023-12-30T22:06:17.994Z,96405.88
2023-12-30T22:08:45.920Z,96424.66
2023-12-30T22:11:14.047Z,96422.34
2023-12-30T22:13:41.834Z,96421.66
2023-12-30T22:16:09.716Z,96434.81
2023-12-30T22:18:37.689Z,96434.25
2023-12-30T22:21:05.531Z,96430.19
2023-12-30T22:23:36.263Z,96437.69
2023-12-30T22:26:04.174Z,96451.91
2023-12-30T22:28:31.986Z,96439.72
2023-12-30T22:31:00.125Z,96449.19
2023-12-30T22:33:29.850Z,96450.53
2023-12-30T22:35:57.996Z,96460.84
2023-12-30T22:38:25.614Z,96444.22
2023-12-30T22:40:53.513Z,96473.53
2023-12-30T22:43:21.506Z,96456.31
2023-12-30T22:45:49.232Z,96465.25
2023-12-30T22:48:18.207Z,96465.25
2023-12-30T22:50:46.787Z,96446.56
2023-12-30T22:53:14.486Z,96474.00
2023-12-30T22:55:42.675Z,96472.78
2023-12-30T22:58:10.599Z,96477.53
2023-12-30T23:00:40.901Z,96471.13
2023-12-30T23:03:09.188Z,96479.19
2023-12-30T23:05:37.261Z,96477.44
2023-12-30T23:08:05.336Z,96483.47
2023-12-30T23:10:33.186Z,96462.72
2023-12-30T23:13:02.024Z,96474.41
2023-12-30T23:15:30.775Z,96491.34
2023-12-30T23:17:59.955Z,96478.41
2023-12-30T23:20:30.923Z,96494.66
2023-12-30T23:23:04.904Z,96492.44
2023-12-30T23:25:39.312Z,96497.56
2023-12-30T23:28:09.813Z,96482.28
2023-12-30T23:30:39.339Z,96486.75
2023-12-30T23:33:10.002Z,96484.97
2023-12-30T23:35:44.531Z,96490.63
2023-12-30T23:38:13.738Z,96512.34
2023-12-30T23:40:41.767Z,96506.63
2023-12-30T23:43:09.480Z,96494.53
2023-12-30T23:45:37.826Z,96488.56
2023-12-30T23:48:06.130Z,96506.81
2023-12-30T23:50:34.365Z,96514.00
2023-12-30T23:53:02.495Z,96500.16
2023-12-30T23:55:30.391Z,96510.28
2023-12-30T23:57:58.901Z,96506.47
